createdAt,value
2023-05-20T00:01:31.444Z,99.90
2023-05-20T00:03:58.298Z,99.90
2023-05-20T00:06:25.201Z,99.90
2023-05-20T00:08:51.934Z,99.90
2023-05-20T00:11:18.589Z,99.90
2023-05-20T00:13:45.309Z,99.90
2023-05-20T00:16:11.991Z,99.90
2023-05-20T00:18:38.737Z,99.90
2023-05-20T00:21:05.467Z,99.90
2023-05-20T00:23:32.126Z,99.90
2023-05-20T00:26:00.680Z,99.90
2023-05-20T00:28:27.724Z,99.90
2023-05-20T00:30:54.902Z,99.90
2023-05-20T00:33:21.562Z,99.90
2023-05-20T00:35:48.261Z,99.90
2023-05-20T00:38:14.906Z,99.90
2023-05-20T00:40:41.564Z,99.90
2023-05-20T00:43:08.295Z,99.90
2023-05-20T00:45:35.398Z,99.90
2023-05-20T00:48:04.154Z,99.90
2023-05-20T00:50:31.433Z,99.90
2023-05-20T00:52:58.947Z,99.90
2023-05-20T00:55:25.953Z,99.90
2023-05-20T00:57:53.062Z,99.90
2023-05-20T01:00:19.810Z,99.90
2023-05-20T01:02:46.625Z,99.90
2023-05-20T01:05:13.386Z,99.90
2023-05-20T01:07:40.269Z,99.90
2023-05-20T01:10:07.292Z,99.90
2023-05-20T01:12:37.253Z,99.90
2023-05-20T01:15:04.049Z,99.90
2023-05-20T01:17:31.267Z,99.90
2023-05-20T01:19:58.422Z,99.90
2023-05-20T01:22:25.903Z,99.90
2023-05-20T01:24:55.613Z,99.90
2023-05-20T01:27:22.744Z,99.90
2023-05-20T01:29:50.645Z,99.90
2023-05-20T01:32:22.403Z,99.90
2023-05-20T01:34:50.554Z,99.90
2023-05-20T01:37:17.754Z,99.90
2023-05-20T01:39:45.396Z,99.90
2023-05-20T01:42:12.866Z,99.90
2023-05-20T01:44:39.936Z,99.90
2023-05-20T01:47:06.736Z,99.90
2023-05-20T01:49:33.584Z,99.90
2023-05-20T01:52:00.500Z,99.90
2023-05-20T01:54:27.235Z,99.90
2023-05-20T01:56:53.976Z,99.90
2023-05-20T01:59:20.625Z,99.90
2023-05-20T02:01:47.336Z,99.90
2023-05-20T02:04:14.710Z,99.90
2023-05-20T02:06:41.372Z,99.90
2023-05-20T02:09:08.052Z,99.90
2023-05-20T02:11:34.705Z,99.90
2023-05-20T02:14:03.231Z,99.90
2023-05-20T02:16:29.975Z,99.90
2023-05-20T02:18:58.592Z,99.90
2023-05-20T02:21:25.937Z,99.90
2023-05-20T02:23:52.633Z,99.90
2023-05-20T02:26:20.782Z,99.90
2023-05-20T02:28:50.759Z,99.90
2023-05-20T02:31:18.157Z,99.90
2023-05-20T02:33:45.222Z,99.90
2023-05-20T02:36:11.927Z,99.90
2023-05-20T02:38:38.625Z,99.90
2023-05-20T02:41:05.502Z,99.90
2023-05-20T02:43:33.235Z,99.90
2023-05-20T02:46:00.020Z,99.90
2023-05-20T02:48:26.757Z,99.90
2023-05-20T02:50:53.522Z,99.90
2023-05-20T02:53:21.010Z,99.90
2023-05-20T02:55:48.701Z,99.90
2023-05-20T02:58:15.814Z,99.90
2023-05-20T03:00:42.991Z,99.90
2023-05-20T03:03:10.386Z,99.90
2023-05-20T03:05:37.859Z,99.90
2023-05-20T03:08:15.017Z,99.90
2023-05-20T03:10:41.695Z,99.90
2023-05-20T03:13:08.857Z,99.90
2023-05-20T03:15:38.488Z,99.90
2023-05-20T03:18:06.151Z,99.90
2023-05-20T03:20:32.845Z,99.90
2023-05-20T03:22:59.667Z,99.90
2023-05-20T03:25:26.380Z,99.90
2023-05-20T03:27:53.114Z,99.90
2023-05-20T03:30:19.822Z,99.90
2023-05-20T03:32:46.559Z,99.90
2023-05-20T03:35:13.442Z,99.90
2023-05-20T03:37:40.231Z,99.90
2023-05-20T03:40:07.971Z,99.90
2023-05-20T03:42:34.833Z,99.90
2023-05-20T03:45:01.583Z,99.90
2023-05-20T03:47:28.536Z,99.90
2023-05-20T03:49:55.275Z,99.90
2023-05-20T03:52:22.072Z,99.90
2023-05-20T03:54:48.863Z,99.90
2023-05-20T03:57:15.578Z,99.90
2023-05-20T03:59:42.229Z,99.90
2023-05-20T04:02:09.783Z,99.90
2023-05-20T04:04:36.591Z,99.90
2023-05-20T04:07:04.933Z,99.90
2023-05-20T04:09:32.052Z,99.90
2023-05-20T04:11:58.703Z,99.90
2023-05-20T04:14:25.352Z,99.90
2023-05-20T04:16:52.504Z,99.90
2023-05-20T04:19:20.142Z,99.90
2023-05-20T04:21:46.847Z,99.90
2023-05-20T04:24:13.589Z,99.90
2023-05-20T04:26:40.248Z,99.90
2023-05-20T04:29:06.905Z,99.90
2023-05-20T04:31:33.600Z,99.90
2023-05-20T04:34:00.703Z,99.90
2023-05-20T04:36:30.368Z,99.90
2023-05-20T04:38:57.306Z,99.90
2023-05-20T04:41:24.244Z,99.90
2023-05-20T04:43:50.950Z,99.90
2023-05-20T04:46:17.681Z,99.90
2023-05-20T04:48:44.412Z,99.90
2023-05-20T04:51:11.116Z,99.90
2023-05-20T04:53:38.162Z,99.90
2023-05-20T04:56:05.722Z,99.90
2023-05-20T04:58:33.437Z,99.90
2023-05-20T05:01:01.423Z,99.90
2023-05-20T05:03:28.466Z,99.90
2023-05-20T05:05:58.691Z,99.90
2023-05-20T05:08:26.423Z,99.90
2023-05-20T05:10:53.148Z,99.90
2023-05-20T05:13:19.969Z,99.90
2023-05-20T05:15:46.766Z,99.90
2023-05-20T05:18:13.493Z,99.90
2023-05-20T05:20:40.211Z,99.90
2023-05-20T05:23:07.203Z,99.90
2023-05-20T05:25:34.088Z,99.90
2023-05-20T05:28:00.876Z,99.90
2023-05-20T05:30:27.552Z,99.90
2023-05-20T05:32:54.383Z,99.90
2023-05-20T05:35:22.398Z,99.90
2023-05-20T05:37:49.084Z,99.90
2023-05-20T05:40:15.851Z,99.90
2023-05-20T05:42:42.522Z,99.90
2023-05-20T05:45:09.479Z,99.90
2023-05-20T05:47:36.589Z,99.90
2023-05-20T05:50:03.508Z,99.90
2023-05-20T05:52:30.154Z,99.90
2023-05-20T05:54:57.192Z,99.90
2023-05-20T05:57:23.887Z,99.90
2023-05-20T05:59:50.612Z,99.90
2023-05-20T06:02:17.622Z,99.90
2023-05-20T06:04:44.322Z,99.90
2023-05-20T06:07:11.237Z,99.90
2023-05-20T06:09:38.820Z,99.90
2023-05-20T06:12:05.654Z,99.90
2023-05-20T06:14:32.881Z,99.90
2023-05-20T06:16:59.629Z,99.90
2023-05-20T06:19:26.359Z,99.90
2023-05-20T06:21:53.053Z,99.90
2023-05-20T06:24:20.080Z,99.90
2023-05-20T06:26:49.856Z,99.90
2023-05-20T06:29:16.717Z,99.90
2023-05-20T06:31:43.417Z,99.90
2023-05-20T06:34:10.110Z,99.90
2023-05-20T06:36:36.769Z,99.90
2023-05-20T06:39:04.203Z,99.90
2023-05-20T06:41:30.945Z,99.90
2023-05-20T06:43:57.774Z,99.90
2023-05-20T06:46:25.098Z,99.90
2023-05-20T06:48:51.852Z,99.90
2023-05-20T06:51:18.487Z,99.90
2023-05-20T06:53:45.155Z,99.90
2023-05-20T06:56:11.840Z,99.90
2023-05-20T06:58:38.495Z,99.90
2023-05-20T07:01:05.335Z,99.90
2023-05-20T07:03:32.103Z,99.90
2023-05-20T07:05:58.829Z,99.90
2023-05-20T07:08:25.534Z,99.90
2023-05-20T07:10:52.198Z,99.90
2023-05-20T07:13:18.868Z,99.90
2023-05-20T07:15:48.678Z,99.90
2023-05-20T07:18:16.107Z,99.90
2023-05-20T07:20:42.861Z,99.90
2023-05-20T07:23:09.494Z,99.90
2023-05-20T07:25:36.287Z,99.90
2023-05-20T07:28:03.064Z,99.90
2023-05-20T07:30:29.782Z,99.90
2023-05-20T07:32:56.824Z,99.90
2023-05-20T07:35:24.564Z,99.90
2023-05-20T07:37:51.511Z,99.90
2023-05-20T07:40:18.251Z,99.90
2023-05-20T07:42:45.214Z,99.90
2023-05-20T07:45:11.868Z,99.90
2023-05-20T07:47:38.679Z,99.90
2023-05-20T07:50:05.708Z,99.90
2023-05-20T07:52:41.066Z,99.90
2023-05-20T07:55:14.766Z,99.90
2023-05-20T07:57:42.999Z,99.90
2023-05-20T08:00:12.157Z,99.90
2023-05-20T08:02:39.334Z,99.90
2023-05-20T08:05:06.528Z,99.90
2023-05-20T08:07:33.182Z,99.90
2023-05-20T08:10:00.982Z,99.90
2023-05-20T08:12:27.662Z,99.90
2023-05-20T08:14:54.396Z,99.90
2023-05-20T08:17:21.183Z,99.90
2023-05-20T08:19:47.854Z,99.90
2023-05-20T08:22:14.532Z,99.90
2023-05-20T08:24:41.237Z,99.90
2023-05-20T08:27:08.006Z,99.90
2023-05-20T08:29:35.081Z,99.90
2023-05-20T08:32:01.989Z,99.90
2023-05-20T08:34:28.632Z,99.90
2023-05-20T08:36:55.476Z,99.90
2023-05-20T08:39:22.236Z,99.90
2023-05-20T08:41:49.283Z,99.90
2023-05-20T08:44:17.905Z,99.90
2023-05-20T08:46:45.397Z,99.90
2023-05-20T08:49:12.222Z,99.90
2023-05-20T08:51:39.679Z,99.90
2023-05-20T08:54:08.072Z,99.90
2023-05-20T08:56:35.564Z,99.90
2023-05-20T08:59:03.511Z,99.90
2023-05-20T09:01:30.216Z,99.90
2023-05-20T09:03:57.195Z,99.90
2023-05-20T09:06:24.196Z,99.90
2023-05-20T09:08:53.586Z,99.90
2023-05-20T09:11:21.799Z,99.90
2023-05-20T09:13:49.872Z,99.90
2023-05-20T09:16:17.057Z,99.90
2023-05-20T09:18:43.906Z,99.90
2023-05-20T09:21:10.667Z,99.90
2023-05-20T09:23:38.175Z,99.90
2023-05-20T09:26:04.892Z,99.90
2023-05-20T09:28:31.639Z,99.90
2023-05-20T09:31:00.895Z,99.90
2023-05-20T09:33:32.147Z,99.90
2023-05-20T09:36:03.152Z,99.90
2023-05-20T09:38:35.557Z,99.90
2023-05-20T09:41:05.374Z,99.90
2023-05-20T09:43:32.086Z,99.90
2023-05-20T09:46:00.757Z,99.90
2023-05-20T09:48:27.598Z,99.90
2023-05-20T09:50:56.695Z,99.90
2023-05-20T09:53:27.120Z,99.90
2023-05-20T09:55:54.551Z,99.90
2023-05-20T09:58:21.401Z,99.90
2023-05-20T10:00:48.265Z,99.90
2023-05-20T10:03:15.254Z,99.90
2023-05-20T10:05:44.360Z,99.90
2023-05-20T10:08:17.178Z,99.90
2023-05-20T10:10:47.779Z,99.90
2023-05-20T10:13:14.411Z,99.90
2023-05-20T10:15:59.383Z,99.90
2023-05-20T10:18:36.245Z,99.90
2023-05-20T10:21:02.952Z,99.90
2023-05-20T10:23:30.672Z,99.90
2023-05-20T10:25:58.131Z,99.90
2023-05-20T10:28:29.528Z,99.90
2023-05-20T10:30:56.640Z,99.90
2023-05-20T10:33:23.400Z,99.90
2023-05-20T10:35:53.710Z,99.90
2023-05-20T10:38:21.411Z,99.90
2023-05-20T10:40:48.112Z,99.90
2023-05-20T10:43:15.818Z,99.90
2023-05-20T10:45:49.728Z,99.90
2023-05-20T10:48:28.762Z,99.90
2023-05-20T10:50:57.051Z,99.90
2023-05-20T10:53:33.481Z,99.90
2023-05-20T10:56:01.085Z,99.90
2023-05-20T10:58:27.750Z,99.90
2023-05-20T11:00:55.107Z,99.90
2023-05-20T11:03:22.535Z,99.90
2023-05-20T11:05:50.203Z,99.90
2023-05-20T11:08:27.640Z,99.90
2023-05-20T11:10:56.716Z,99.90
2023-05-20T11:13:23.589Z,99.90
2023-05-20T11:15:50.474Z,99.90
2023-05-20T11:18:18.936Z,99.90
2023-05-20T11:20:46.554Z,99.90
2023-05-20T11:23:13.969Z,99.90
2023-05-20T11:25:40.650Z,99.90
2023-05-20T11:28:14.218Z,99.90
2023-05-20T11:30:42.301Z,99.90
2023-05-20T11:33:12.316Z,99.90
2023-05-20T11:35:44.158Z,99.90
2023-05-20T11:38:11.196Z,99.90
2023-05-20T11:40:49.717Z,99.90
2023-05-20T11:43:17.650Z,99.90
2023-05-20T11:45:45.376Z,99.90
2023-05-20T11:48:12.596Z,99.90
2023-05-20T11:50:40.989Z,99.90
2023-05-20T11:53:11.587Z,99.90
2023-05-20T11:55:51.086Z,99.90
2023-05-20T11:58:21.852Z,99.90
2023-05-20T12:00:54.720Z,99.90
2023-05-20T12:03:24.115Z,99.90
2023-05-20T12:05:51.328Z,99.90
2023-05-20T12:08:18.099Z,99.90
2023-05-20T12:10:47.773Z,99.90
2023-05-20T12:13:14.675Z,99.90
2023-05-20T12:15:41.398Z,99.90
2023-05-20T12:18:08.392Z,99.90
2023-05-20T12:20:36.575Z,99.90
2023-05-20T12:23:04.087Z,99.90
2023-05-20T12:25:30.774Z,99.90
2023-05-20T12:27:57.523Z,99.10
2023-05-20T12:30:24.349Z,99.90
2023-05-20T12:32:51.888Z,99.20
2023-05-20T12:35:25.869Z,98.20
2023-05-20T12:37:52.729Z,99.70
2023-05-20T12:40:19.418Z,99.30
2023-05-20T12:42:46.251Z,99.50
2023-05-20T12:45:13.459Z,97.50
2023-05-20T12:47:40.348Z,97.20
2023-05-20T12:50:07.187Z,99.30
2023-05-20T12:52:33.846Z,99.00
2023-05-20T12:55:00.516Z,97.80
2023-05-20T12:57:27.238Z,96.80
2023-05-20T12:59:53.987Z,98.10
2023-05-20T13:02:21.055Z,97.20
2023-05-20T13:04:47.808Z,98.10
2023-05-20T13:07:14.529Z,97.40
2023-05-20T13:09:41.221Z,97.30
2023-05-20T13:12:08.013Z,97.40
2023-05-20T13:14:34.666Z,96.10
2023-05-20T13:17:01.870Z,94.70
2023-05-20T13:19:28.758Z,96.60
2023-05-20T13:21:55.615Z,92.70
2023-05-20T13:24:22.530Z,95.70
2023-05-20T13:26:49.225Z,93.30
2023-05-20T13:29:16.248Z,93.70
2023-05-20T13:31:42.896Z,93.40
2023-05-20T13:34:09.768Z,92.80
2023-05-20T13:36:36.651Z,94.50
2023-05-20T13:39:03.447Z,94.60
2023-05-20T13:41:30.737Z,94.90
2023-05-20T13:43:57.464Z,92.20
2023-05-20T13:46:24.349Z,92.50
2023-05-20T13:48:51.057Z,94.60
2023-05-20T13:51:17.793Z,94.40
2023-05-20T13:53:44.466Z,93.50
2023-05-20T13:56:11.430Z,93.10
2023-05-20T13:58:38.364Z,93.60
2023-05-20T14:01:05.473Z,93.10
2023-05-20T14:03:33.318Z,93.10
2023-05-20T14:06:00.703Z,92.70
2023-05-20T14:08:27.519Z,92.40
2023-05-20T14:10:55.916Z,93.20
2023-05-20T14:13:22.788Z,93.60
2023-05-20T14:15:50.786Z,92.60
2023-05-20T14:18:17.869Z,93.50
2023-05-20T14:20:45.425Z,92.70
2023-05-20T14:23:12.380Z,93.10
2023-05-20T14:25:39.360Z,93.80
2023-05-20T14:28:06.263Z,94.60
2023-05-20T14:30:33.343Z,92.90
2023-05-20T14:33:00.320Z,93.90
2023-05-20T14:35:27.012Z,92.60
2023-05-20T14:37:53.982Z,93.00
2023-05-20T14:40:20.836Z,92.30
2023-05-20T14:42:47.652Z,93.60
2023-05-20T14:45:14.334Z,93.00
2023-05-20T14:47:41.089Z,93.90
2023-05-20T14:50:08.010Z,94.30
2023-05-20T14:52:34.748Z,92.70
2023-05-20T14:55:01.545Z,93.20
2023-05-20T14:57:28.222Z,93.50
2023-05-20T14:59:54.946Z,92.80
2023-05-20T15:02:21.659Z,93.80
2023-05-20T15:04:48.715Z,94.40
2023-05-20T15:07:15.502Z,94.30
2023-05-20T15:09:42.605Z,94.60
2023-05-20T15:12:09.664Z,94.30
2023-05-20T15:14:36.957Z,93.60
2023-05-20T15:17:04.220Z,94.00
2023-05-20T15:19:31.718Z,94.10
2023-05-20T15:21:58.772Z,95.70
2023-05-20T15:24:25.467Z,95.20
2023-05-20T15:26:52.791Z,94.20
2023-05-20T15:29:19.575Z,93.60
2023-05-20T15:31:46.569Z,93.80
2023-05-20T15:34:13.391Z,93.30
2023-05-20T15:36:40.170Z,93.00
2023-05-20T15:39:07.021Z,94.00
2023-05-20T15:41:33.663Z,92.80
2023-05-20T15:44:00.617Z,94.10
2023-05-20T15:46:27.921Z,93.00
2023-05-20T15:48:56.385Z,92.60
2023-05-20T15:51:23.308Z,93.60
2023-05-20T15:53:49.999Z,93.30
2023-05-20T15:56:16.873Z,93.70
2023-05-20T15:58:44.484Z,93.70
2023-05-20T16:01:11.187Z,92.70
2023-05-20T16:03:37.963Z,93.30
2023-05-20T16:06:04.806Z,92.60
2023-05-20T16:08:31.552Z,93.40
2023-05-20T16:10:58.232Z,92.90
2023-05-20T16:13:24.903Z,93.00
2023-05-20T16:15:52.012Z,91.60
2023-05-20T16:18:20.384Z,91.90
2023-05-20T16:20:47.013Z,92.50
2023-05-20T16:23:13.766Z,92.70
2023-05-20T16:25:40.546Z,93.40
2023-05-20T16:28:07.231Z,92.90
2023-05-20T16:30:34.942Z,93.20
2023-05-20T16:33:01.910Z,92.00
2023-05-20T16:35:28.859Z,92.50
2023-05-20T16:37:55.940Z,92.00
2023-05-20T16:40:23.195Z,91.70
2023-05-20T16:42:49.883Z,92.20
2023-05-20T16:45:16.678Z,91.90
2023-05-20T16:47:43.452Z,92.00
2023-05-20T16:50:10.241Z,91.90
2023-05-20T16:52:39.929Z,92.00
2023-05-20T16:55:08.442Z,92.20
2023-05-20T16:57:35.565Z,91.00
2023-05-20T17:00:06.991Z,91.80
2023-05-20T17:02:33.770Z,92.00
2023-05-20T17:05:00.448Z,91.80
2023-05-20T17:07:27.097Z,92.00
2023-05-20T17:09:53.765Z,92.90
2023-05-20T17:12:20.434Z,93.00
2023-05-20T17:14:47.159Z,92.40
2023-05-20T17:17:16.746Z,93.10
2023-05-20T17:19:43.422Z,93.50
2023-05-20T17:22:10.180Z,93.80
2023-05-20T17:24:36.876Z,93.60
2023-05-20T17:27:03.797Z,94.00
2023-05-20T17:29:30.565Z,93.70
2023-05-20T17:31:57.243Z,93.90
2023-05-20T17:34:23.897Z,93.90
2023-05-20T17:36:51.567Z,94.00
2023-05-20T17:39:18.326Z,94.20
2023-05-20T17:41:45.004Z,94.90
2023-05-20T17:44:11.655Z,94.70
2023-05-20T17:46:38.593Z,94.50
2023-05-20T17:49:05.606Z,95.00
2023-05-20T17:51:32.734Z,95.10
2023-05-20T17:53:59.480Z,95.80
2023-05-20T17:58:31.539Z,96.60
2023-05-20T18:00:58.268Z,96.70
2023-05-20T18:03:25.165Z,96.50
2023-05-20T18:05:54.390Z,96.70
2023-05-20T18:08:22.509Z,96.70
2023-05-20T18:10:49.198Z,97.10
2023-05-20T18:13:15.837Z,97.70
2023-05-20T18:15:42.525Z,98.60
2023-05-20T18:18:09.283Z,98.90
2023-05-20T18:20:36.154Z,98.60
2023-05-20T18:23:03.035Z,98.50
2023-05-20T18:25:29.755Z,99.30
2023-05-20T18:27:56.459Z,99.70
2023-05-20T18:30:24.417Z,99.70
2023-05-20T18:32:51.667Z,99.90
2023-05-20T18:35:18.429Z,99.90
2023-05-20T18:37:45.103Z,99.90
2023-05-20T18:40:12.426Z,99.90
2023-05-20T18:42:39.054Z,99.90
2023-05-20T18:45:06.468Z,99.90
2023-05-20T18:47:33.178Z,99.90
2023-05-20T18:49:59.835Z,99.90
2023-05-20T18:52:26.487Z,99.90
2023-05-20T18:54:53.174Z,99.90
2023-05-20T18:57:19.975Z,99.90
2023-05-20T18:59:48.000Z,99.90
2023-05-20T19:02:17.014Z,99.90
2023-05-20T19:04:43.969Z,99.90
2023-05-20T19:07:11.532Z,99.90
2023-05-20T19:09:38.220Z,99.90
2023-05-20T19:12:05.916Z,99.90
2023-05-20T19:14:32.538Z,99.90
2023-05-20T19:17:01.002Z,99.90
2023-05-20T19:19:27.858Z,99.90
2023-05-20T19:21:54.821Z,99.90
2023-05-20T19:24:21.498Z,99.90
2023-05-20T19:26:48.137Z,99.90
2023-05-20T19:29:15.382Z,99.90
2023-05-20T19:31:43.162Z,99.90
2023-05-20T19:34:10.088Z,99.90
2023-05-20T19:36:38.322Z,99.90
2023-05-20T19:39:05.194Z,99.90
2023-05-20T19:41:31.892Z,99.90
2023-05-20T19:43:58.514Z,99.90
2023-05-20T19:46:25.262Z,99.90
2023-05-20T19:48:51.961Z,99.90
2023-05-20T19:51:18.625Z,99.90
2023-05-20T19:53:45.517Z,99.90
2023-05-20T19:56:12.546Z,99.90
2023-05-20T19:58:39.166Z,99.90
2023-05-20T20:01:06.707Z,99.90
2023-05-20T20:03:34.112Z,99.90
2023-05-20T20:06:00.872Z,99.90
2023-05-20T20:08:27.541Z,99.90
2023-05-20T20:10:54.246Z,99.90
2023-05-20T20:13:20.946Z,99.90
2023-05-20T20:15:47.622Z,99.90
2023-05-20T20:18:14.393Z,99.90
2023-05-20T20:20:41.150Z,99.90
2023-05-20T20:23:08.279Z,99.90
2023-05-20T20:25:41.178Z,99.90
2023-05-20T20:28:08.820Z,99.90
2023-05-20T20:30:36.062Z,99.90
2023-05-20T20:33:06.256Z,99.90
2023-05-20T20:35:33.545Z,99.90
2023-05-20T20:38:01.223Z,99.90
2023-05-20T20:40:28.414Z,99.90
2023-05-20T20:42:58.396Z,99.90
2023-05-20T20:45:25.068Z,99.90
2023-05-20T20:47:54.759Z,99.90
2023-05-20T20:50:21.673Z,99.90
2023-05-20T20:52:48.418Z,99.90
2023-05-20T20:55:15.081Z,99.90
2023-05-20T20:57:41.994Z,99.90
2023-05-20T21:00:20.975Z,99.90
2023-05-20T21:02:48.034Z,99.90
2023-05-20T21:05:18.313Z,99.90
2023-05-20T21:07:46.465Z,99.90
2023-05-20T21:10:13.439Z,99.90
2023-05-20T21:12:40.237Z,99.90
2023-05-20T21:15:07.352Z,99.90
2023-05-20T21:17:34.223Z,99.90
2023-05-20T21:20:00.889Z,99.90
2023-05-20T21:22:27.573Z,99.90
2023-05-20T21:24:54.279Z,99.90
2023-05-20T21:27:20.923Z,99.90
2023-05-20T21:29:48.572Z,99.90
2023-05-20T21:32:15.285Z,99.90
2023-05-20T21:34:41.972Z,99.90
2023-05-20T21:37:08.659Z,99.90
2023-05-20T21:39:35.873Z,99.90
2023-05-20T21:42:02.542Z,99.90
2023-05-20T21:44:29.351Z,99.90
2023-05-20T21:46:56.054Z,99.90
2023-05-20T21:49:22.800Z,99.90
2023-05-20T21:51:49.511Z,99.90
2023-05-20T21:54:16.205Z,99.90
2023-05-20T21:56:42.868Z,99.90
2023-05-20T21:59:09.575Z,99.90
2023-05-20T22:01:36.354Z,99.90
2023-05-20T22:04:03.432Z,99.90
2023-05-20T22:06:30.276Z,99.90
2023-05-20T22:08:56.975Z,99.90
2023-05-20T22:11:23.929Z,99.90
2023-05-20T22:13:51.038Z,99.90
2023-05-20T22:16:17.770Z,99.90
2023-05-20T22:18:47.636Z,99.90
2023-05-20T22:21:15.696Z,99.90
2023-05-20T22:23:42.381Z,99.90
2023-05-20T22:26:09.896Z,99.90
2023-05-20T22:28:36.644Z,99.90
2023-05-20T22:31:03.577Z,99.90
2023-05-20T22:33:30.266Z,99.90
2023-05-20T22:35:58.145Z,99.90
2023-05-20T22:38:24.836Z,99.90
2023-05-20T22:40:51.481Z,99.90
2023-05-20T22:43:18.189Z,99.90
2023-05-20T22:45:45.018Z,99.90
2023-05-20T22:48:12.422Z,99.90
2023-05-20T22:50:39.060Z,99.90
2023-05-20T22:53:06.051Z,99.90
2023-05-20T22:55:32.838Z,99.90
2023-05-20T22:57:59.651Z,99.90
2023-05-20T23:00:26.504Z,99.90
2023-05-20T23:02:53.183Z,99.90
2023-05-20T23:05:19.850Z,99.90
2023-05-20T23:07:46.540Z,99.90
2023-05-20T23:10:13.193Z,99.90
2023-05-20T23:12:39.842Z,99.90
2023-05-20T23:15:06.891Z,99.90
2023-05-20T23:17:33.586Z,99.90
2023-05-20T23:20:00.355Z,99.90
2023-05-20T23:22:27.470Z,99.90
2023-05-20T23:24:54.133Z,99.90
2023-05-20T23:27:20.773Z,99.90
2023-05-20T23:29:47.480Z,99.90
2023-05-20T23:32:14.311Z,99.90
2023-05-20T23:34:41.102Z,99.90
2023-05-20T23:37:07.753Z,99.90
2023-05-20T23:39:34.423Z,99.90
2023-05-20T23:42:01.083Z,99.90
2023-05-20T23:44:27.801Z,99.90
2023-05-20T23:46:54.473Z,99.90
2023-05-20T23:49:24.464Z,99.90
2023-05-20T23:51:52.091Z,99.90
2023-05-20T23:54:20.776Z,99.90
2023-05-20T23:56:47.964Z,99.90
2023-05-20T23:59:14.641Z,99.90
